sensor_id;sensor_type;location;lat;lon;timestamp;P1;durP1;ratioP1;P2;durP2;ratioP2
72235;SDS011;60146;52.498;13.462;2023-01-13T00:01:06;0.57;;;0.50;;
72235;SDS011;60146;52.498;13.462;2023-01-13T00:03:31;0.57;;;0.43;;
72235;SDS011;60146;52.498;13.462;2023-01-13T00:05:57;0.50;;;0.50;;
72235;SDS011;60146;52.498;13.462;2023-01-13T00:08:23;0.40;;;0.40;;
72235;SDS011;60146;52.498;13.462;2023-01-13T00:10:48;0.70;;;0.50;;
72235;SDS011;60146;52.498;13.462;2023-01-13T00:13:13;1.80;;;0.63;;
72235;SDS011;60146;52.498;13.462;2023-01-13T00:15:38;0.80;;;0.50;;
72235;SDS011;60146;52.498;13.462;2023-01-13T00:18:04;2.13;;;0.50;;
72235;SDS011;60146;52.498;13.462;2023-01-13T00:20:29;1.03;;;0.47;;
72235;SDS011;60146;52.498;13.462;2023-01-13T00:22:56;0.97;;;0.50;;
72235;SDS011;60146;52.498;13.462;2023-01-13T00:25:26;0.50;;;0.50;;
72235;SDS011;60146;52.498;13.462;2023-01-13T00:27:57;0.70;;;0.57;;
72235;SDS011;60146;52.498;13.462;2023-01-13T00:30:25;1.73;;;0.60;;
72235;SDS011;60146;52.498;13.462;2023-01-13T00:32:51;2.50;;;0.50;;
72235;SDS011;60146;52.498;13.462;2023-01-13T00:35:16;0.50;;;0.50;;
72235;SDS011;60146;52.498;13.462;2023-01-13T00:37:42;0.40;;;0.40;;
72235;SDS011;60146;52.498;13.462;2023-01-13T00:40:07;0.83;;;0.60;;
72235;SDS011;60146;52.498;13.462;2023-01-13T00:42:32;1.03;;;0.43;;
72235;SDS011;60146;52.498;13.462;2023-01-13T00:45:16;0.40;;;0.40;;
72235;SDS011;60146;52.498;13.462;2023-01-13T00:47:42;1.47;;;0.70;;
72235;SDS011;60146;52.498;13.462;2023-01-13T00:50:07;0.80;;;0.60;;
72235;SDS011;60146;52.498;13.462;2023-01-13T00:52:32;1.77;;;0.40;;
72235;SDS011;60146;52.498;13.462;2023-01-13T00:54:58;2.40;;;0.60;;
72235;SDS011;60146;52.498;13.462;2023-01-13T00:57:24;2.00;;;1.00;;
72235;SDS011;60146;52.498;13.462;2023-01-13T00:59:50;0.47;;;0.47;;
72235;SDS011;60146;52.498;13.462;2023-01-13T01:02:15;0.43;;;0.40;;
72235;SDS011;60146;52.498;13.462;2023-01-13T01:04:40;0.60;;;0.50;;
72235;SDS011;60146;52.498;13.462;2023-01-13T01:07:05;0.80;;;0.40;;
72235;SDS011;60146;52.498;13.462;2023-01-13T01:09:31;1.27;;;0.50;;
72235;SDS011;60146;52.498;13.462;2023-01-13T01:11:59;0.57;;;0.47;;
72235;SDS011;60146;52.498;13.462;2023-01-13T01:14:24;0.67;;;0.57;;
72235;SDS011;60146;52.498;13.462;2023-01-13T01:16:51;0.70;;;0.70;;
72235;SDS011;60146;52.498;13.462;2023-01-13T01:19:16;3.77;;;1.97;;
72235;SDS011;60146;52.498;13.462;2023-01-13T01:21:42;1.50;;;0.77;;
72235;SDS011;60146;52.498;13.462;2023-01-13T01:24:08;0.73;;;0.60;;
72235;SDS011;60146;52.498;13.462;2023-01-13T01:26:33;1.43;;;0.50;;
72235;SDS011;60146;52.498;13.462;2023-01-13T01:28:59;0.90;;;0.50;;
72235;SDS011;60146;52.498;13.462;2023-01-13T01:31:27;0.43;;;0.37;;
72235;SDS011;60146;52.498;13.462;2023-01-13T01:33:53;0.30;;;0.30;;
72235;SDS011;60146;52.498;13.462;2023-01-13T01:36:19;1.90;;;0.60;;
72235;SDS011;60146;52.498;13.462;2023-01-13T01:38:45;0.73;;;0.30;;
72235;SDS011;60146;52.498;13.462;2023-01-13T01:41:14;1.63;;;0.40;;
72235;SDS011;60146;52.498;13.462;2023-01-13T01:46:42;0.80;;;0.40;;
72235;SDS011;60146;52.498;13.462;2023-01-13T01:49:18;1.90;;;0.40;;
72235;SDS011;60146;52.498;13.462;2023-01-13T01:54:19;0.57;;;0.37;;
72235;SDS011;60146;52.498;13.462;2023-01-13T01:56:46;0.37;;;0.37;;
72235;SDS011;60146;52.498;13.462;2023-01-13T01:59:11;0.37;;;0.27;;
72235;SDS011;60146;52.498;13.462;2023-01-13T02:01:37;0.50;;;0.30;;
72235;SDS011;60146;52.498;13.462;2023-01-13T02:04:11;0.33;;;0.33;;
72235;SDS011;60146;52.498;13.462;2023-01-13T02:06:39;0.57;;;0.40;;
72235;SDS011;60146;52.498;13.462;2023-01-13T02:09:04;0.40;;;0.30;;
72235;SDS011;60146;52.498;13.462;2023-01-13T02:11:32;0.63;;;0.30;;
72235;SDS011;60146;52.498;13.462;2023-01-13T02:14:16;1.00;;;0.30;;
72235;SDS011;60146;52.498;13.462;2023-01-13T02:16:45;0.43;;;0.20;;
72235;SDS011;60146;52.498;13.462;2023-01-13T02:22:11;0.30;;;0.30;;
72235;SDS011;60146;52.498;13.462;2023-01-13T02:24:53;0.30;;;0.20;;
72235;SDS011;60146;52.498;13.462;2023-01-13T02:32:54;0.20;;;0.20;;
72235;SDS011;60146;52.498;13.462;2023-01-13T02:35:25;1.47;;;0.27;;
72235;SDS011;60146;52.498;13.462;2023-01-13T02:37:51;0.20;;;0.20;;
72235;SDS011;60146;52.498;13.462;2023-01-13T02:40:24;0.53;;;0.30;;
72235;SDS011;60146;52.498;13.462;2023-01-13T02:42:58;2.43;;;0.60;;
72235;SDS011;60146;52.498;13.462;2023-01-13T02:45:48;1.37;;;0.40;;
72235;SDS011;60146;52.498;13.462;2023-01-13T02:48:15;0.20;;;0.20;;
72235;SDS011;60146;52.498;13.462;2023-01-13T02:50:42;0.30;;;0.30;;
72235;SDS011;60146;52.498;13.462;2023-01-13T02:53:14;0.40;;;0.40;;
72235;SDS011;60146;52.498;13.462;2023-01-13T02:55:43;0.30;;;0.20;;
72235;SDS011;60146;52.498;13.462;2023-01-13T02:58:11;0.13;;;0.13;;
72235;SDS011;60146;52.498;13.462;2023-01-13T03:00:45;0.20;;;0.20;;
72235;SDS011;60146;52.498;13.462;2023-01-13T03:03:20;0.60;;;0.33;;
72235;SDS011;60146;52.498;13.462;2023-01-13T03:05:51;0.83;;;0.33;;
72235;SDS011;60146;52.498;13.462;2023-01-13T03:08:26;0.77;;;0.30;;
72235;SDS011;60146;52.498;13.462;2023-01-13T03:11:10;0.20;;;0.20;;
72235;SDS011;60146;52.498;13.462;2023-01-13T03:13:59;0.20;;;0.20;;
72235;SDS011;60146;52.498;13.462;2023-01-13T03:22:00;0.67;;;0.30;;
72235;SDS011;60146;52.498;13.462;2023-01-13T03:27:05;0.30;;;0.30;;
72235;SDS011;60146;52.498;13.462;2023-01-13T03:29:33;0.67;;;0.23;;
72235;SDS011;60146;52.498;13.462;2023-01-13T03:34:31;0.50;;;0.30;;
72235;SDS011;60146;52.498;13.462;2023-01-13T03:37:02;0.63;;;0.20;;
72235;SDS011;60146;52.498;13.462;2023-01-13T03:39:42;0.20;;;0.20;;
72235;SDS011;60146;52.498;13.462;2023-01-13T03:42:10;0.60;;;0.30;;
72235;SDS011;60146;52.498;13.462;2023-01-13T03:44:53;0.30;;;0.30;;
72235;SDS011;60146;52.498;13.462;2023-01-13T03:47:35;0.63;;;0.23;;
72235;SDS011;60146;52.498;13.462;2023-01-13T03:50:04;0.10;;;0.10;;
72235;SDS011;60146;52.498;13.462;2023-01-13T03:52:32;0.30;;;0.10;;
72235;SDS011;60146;52.498;13.462;2023-01-13T03:55:17;0.20;;;0.20;;
72235;SDS011;60146;52.498;13.462;2023-01-13T03:57:47;1.07;;;0.30;;
72235;SDS011;60146;52.498;13.462;2023-01-13T04:00:13;0.40;;;0.20;;
72235;SDS011;60146;52.498;13.462;2023-01-13T04:05:06;0.20;;;0.20;;
72235;SDS011;60146;52.498;13.462;2023-01-13T04:09:59;0.50;;;0.33;;
72235;SDS011;60146;52.498;13.462;2023-01-13T04:12:30;0.50;;;0.20;;
72235;SDS011;60146;52.498;13.462;2023-01-13T04:15:16;1.50;;;0.20;;
72235;SDS011;60146;52.498;13.462;2023-01-13T04:17:41;0.27;;;0.20;;
72235;SDS011;60146;52.498;13.462;2023-01-13T04:20:07;0.40;;;0.20;;
72235;SDS011;60146;52.498;13.462;2023-01-13T04:22:33;0.40;;;0.40;;
72235;SDS011;60146;52.498;13.462;2023-01-13T04:24:58;0.20;;;0.20;;
72235;SDS011;60146;52.498;13.462;2023-01-13T04:27:23;0.37;;;0.30;;
72235;SDS011;60146;52.498;13.462;2023-01-13T04:29:48;0.67;;;0.20;;
72235;SDS011;60146;52.498;13.462;2023-01-13T04:32:14;0.63;;;0.20;;
72235;SDS011;60146;52.498;13.462;2023-01-13T04:34:39;0.57;;;0.30;;
72235;SDS011;60146;52.498;13.462;2023-01-13T04:37:04;0.43;;;0.30;;
72235;SDS011;60146;52.498;13.462;2023-01-13T04:39:29;0.27;;;0.20;;
72235;SDS011;60146;52.498;13.462;2023-01-13T04:41:55;2.40;;;0.30;;
72235;SDS011;60146;52.498;13.462;2023-01-13T04:44:23;0.50;;;0.23;;
72235;SDS011;60146;52.498;13.462;2023-01-13T04:46:49;1.00;;;0.30;;
72235;SDS011;60146;52.498;13.462;2023-01-13T04:49:14;0.20;;;0.20;;
72235;SDS011;60146;52.498;13.462;2023-01-13T04:51:39;0.40;;;0.23;;
72235;SDS011;60146;52.498;13.462;2023-01-13T04:54:04;0.30;;;0.20;;
72235;SDS011;60146;52.498;13.462;2023-01-13T04:56:30;0.90;;;0.40;;
72235;SDS011;60146;52.498;13.462;2023-01-13T04:58:55;0.27;;;0.10;;
72235;SDS011;60146;52.498;13.462;2023-01-13T05:01:20;0.60;;;0.30;;
72235;SDS011;60146;52.498;13.462;2023-01-13T05:03:46;0.40;;;0.30;;
72235;SDS011;60146;52.498;13.462;2023-01-13T05:06:11;0.10;;;0.10;;
72235;SDS011;60146;52.498;13.462;2023-01-13T05:08:39;1.47;;;0.33;;
72235;SDS011;60146;52.498;13.462;2023-01-13T05:11:04;0.40;;;0.20;;
72235;SDS011;60146;52.498;13.462;2023-01-13T05:13:50;0.43;;;0.30;;
72235;SDS011;60146;52.498;13.462;2023-01-13T05:16:34;0.50;;;0.10;;
72235;SDS011;60146;52.498;13.462;2023-01-13T05:19:18;1.17;;;0.30;;
72235;SDS011;60146;52.498;13.462;2023-01-13T05:21:43;1.13;;;0.30;;
72235;SDS011;60146;52.498;13.462;2023-01-13T05:24:27;0.33;;;0.30;;
72235;SDS011;60146;52.498;13.462;2023-01-13T05:27:11;0.63;;;0.20;;
72235;SDS011;60146;52.498;13.462;2023-01-13T05:29:36;0.40;;;0.10;;
72235;SDS011;60146;52.498;13.462;2023-01-13T05:32:01;1.70;;;0.30;;
72235;SDS011;60146;52.498;13.462;2023-01-13T05:34:28;0.43;;;0.30;;
72235;SDS011;60146;52.498;13.462;2023-01-13T05:36:53;0.70;;;0.30;;
72235;SDS011;60146;52.498;13.462;2023-01-13T05:39:19;0.47;;;0.20;;
72235;SDS011;60146;52.498;13.462;2023-01-13T05:41:44;0.20;;;0.20;;
72235;SDS011;60146;52.498;13.462;2023-01-13T05:44:28;0.63;;;0.27;;
72235;SDS011;60146;52.498;13.462;2023-01-13T05:46:53;0.70;;;0.20;;
72235;SDS011;60146;52.498;13.462;2023-01-13T05:49:18;0.40;;;0.20;;
72235;SDS011;60146;52.498;13.462;2023-01-13T05:51:44;0.83;;;0.30;;
72235;SDS011;60146;52.498;13.462;2023-01-13T05:54:09;0.80;;;0.30;;
72235;SDS011;60146;52.498;13.462;2023-01-13T05:56:34;0.53;;;0.30;;
72235;SDS011;60146;52.498;13.462;2023-01-13T05:59:00;0.30;;;0.20;;
72235;SDS011;60146;52.498;13.462;2023-01-13T06:01:25;1.13;;;0.30;;
72235;SDS011;60146;52.498;13.462;2023-01-13T06:03:50;0.60;;;0.30;;
72235;SDS011;60146;52.498;13.462;2023-01-13T06:06:15;0.60;;;0.30;;
72235;SDS011;60146;52.498;13.462;2023-01-13T06:08:40;0.50;;;0.40;;
72235;SDS011;60146;52.498;13.462;2023-01-13T06:11:06;1.23;;;0.30;;
72235;SDS011;60146;52.498;13.462;2023-01-13T06:13:31;0.67;;;0.30;;
72235;SDS011;60146;52.498;13.462;2023-01-13T06:15:57;0.83;;;0.30;;
72235;SDS011;60146;52.498;13.462;2023-01-13T06:18:23;2.37;;;0.70;;
72235;SDS011;60146;52.498;13.462;2023-01-13T06:20:48;0.60;;;0.30;;
72235;SDS011;60146;52.498;13.462;2023-01-13T06:23:13;1.20;;;0.50;;
72235;SDS011;60146;52.498;13.462;2023-01-13T06:25:41;0.37;;;0.20;;
72235;SDS011;60146;52.498;13.462;2023-01-13T06:28:08;0.20;;;0.20;;
72235;SDS011;60146;52.498;13.462;2023-01-13T06:30:36;0.83;;;0.30;;
72235;SDS011;60146;52.498;13.462;2023-01-13T06:33:02;0.77;;;0.43;;
72235;SDS011;60146;52.498;13.462;2023-01-13T06:35:30;1.37;;;0.40;;
72235;SDS011;60146;52.498;13.462;2023-01-13T06:37:57;2.00;;;0.37;;
72235;SDS011;60146;52.498;13.462;2023-01-13T06:40:24;0.60;;;0.20;;
72235;SDS011;60146;52.498;13.462;2023-01-13T06:42:49;0.37;;;0.23;;
72235;SDS011;60146;52.498;13.462;2023-01-13T06:45:33;2.00;;;1.13;;
72235;SDS011;60146;52.498;13.462;2023-01-13T06:47:59;0.37;;;0.30;;
72235;SDS011;60146;52.498;13.462;2023-01-13T06:50:25;0.30;;;0.30;;
72235;SDS011;60146;52.498;13.462;2023-01-13T06:52:50;1.27;;;0.30;;
72235;SDS011;60146;52.498;13.462;2023-01-13T06:55:15;0.50;;;0.40;;
72235;SDS011;60146;52.498;13.462;2023-01-13T06:57:51;1.17;;;0.77;;
72235;SDS011;60146;52.498;13.462;2023-01-13T07:00:16;0.53;;;0.40;;
72235;SDS011;60146;52.498;13.462;2023-01-13T07:02:42;0.43;;;0.20;;
72235;SDS011;60146;52.498;13.462;2023-01-13T07:05:07;0.40;;;0.20;;
72235;SDS011;60146;52.498;13.462;2023-01-13T07:07:33;1.60;;;0.30;;
72235;SDS011;60146;52.498;13.462;2023-01-13T07:09:58;0.77;;;0.53;;
72235;SDS011;60146;52.498;13.462;2023-01-13T07:12:23;0.43;;;0.40;;
72235;SDS011;60146;52.498;13.462;2023-01-13T07:14:48;1.80;;;0.30;;
72235;SDS011;60146;52.498;13.462;2023-01-13T07:17:32;0.20;;;0.20;;
72235;SDS011;60146;52.498;13.462;2023-01-13T07:19:58;0.27;;;0.10;;
72235;SDS011;60146;52.498;13.462;2023-01-13T07:22:23;1.10;;;0.30;;
72235;SDS011;60146;52.498;13.462;2023-01-13T07:24:49;1.07;;;0.57;;
72235;SDS011;60146;52.498;13.462;2023-01-13T07:27:14;1.07;;;0.30;;
72235;SDS011;60146;52.498;13.462;2023-01-13T07:29:39;0.70;;;0.30;;
72235;SDS011;60146;52.498;13.462;2023-01-13T07:32:05;0.10;;;0.10;;
72235;SDS011;60146;52.498;13.462;2023-01-13T07:34:31;0.80;;;0.50;;
72235;SDS011;60146;52.498;13.462;2023-01-13T07:36:56;1.80;;;0.40;;
72235;SDS011;60146;52.498;13.462;2023-01-13T07:39:22;0.40;;;0.30;;
72235;SDS011;60146;52.498;13.462;2023-01-13T07:41:47;1.30;;;0.40;;
72235;SDS011;60146;52.498;13.462;2023-01-13T07:44:31;2.40;;;0.40;;
72235;SDS011;60146;52.498;13.462;2023-01-13T07:46:56;2.13;;;0.50;;
72235;SDS011;60146;52.498;13.462;2023-01-13T07:49:21;2.73;;;0.50;;
72235;SDS011;60146;52.498;13.462;2023-01-13T07:51:47;1.10;;;0.40;;
72235;SDS011;60146;52.498;13.462;2023-01-13T07:54:12;2.17;;;0.30;;
72235;SDS011;60146;52.498;13.462;2023-01-13T07:56:37;2.17;;;0.30;;
72235;SDS011;60146;52.498;13.462;2023-01-13T07:59:02;0.87;;;0.37;;
72235;SDS011;60146;52.498;13.462;2023-01-13T08:01:28;0.63;;;0.30;;
72235;SDS011;60146;52.498;13.462;2023-01-13T08:03:53;0.53;;;0.30;;
72235;SDS011;60146;52.498;13.462;2023-01-13T08:06:20;1.13;;;0.40;;
72235;SDS011;60146;52.498;13.462;2023-01-13T08:08:45;0.50;;;0.30;;
72235;SDS011;60146;52.498;13.462;2023-01-13T08:11:10;0.40;;;0.10;;
72235;SDS011;60146;52.498;13.462;2023-01-13T08:13:36;0.83;;;0.47;;
72235;SDS011;60146;52.498;13.462;2023-01-13T08:16:02;1.73;;;0.40;;
72235;SDS011;60146;52.498;13.462;2023-01-13T08:18:28;0.50;;;0.20;;
72235;SDS011;60146;52.498;13.462;2023-01-13T08:20:53;0.30;;;0.20;;
72235;SDS011;60146;52.498;13.462;2023-01-13T08:23:19;1.33;;;0.43;;
72235;SDS011;60146;52.498;13.462;2023-01-13T08:25:45;1.03;;;0.40;;
72235;SDS011;60146;52.498;13.462;2023-01-13T08:28:11;0.53;;;0.30;;
72235;SDS011;60146;52.498;13.462;2023-01-13T08:30:36;2.47;;;0.60;;
72235;SDS011;60146;52.498;13.462;2023-01-13T08:33:04;0.60;;;0.40;;
72235;SDS011;60146;52.498;13.462;2023-01-13T08:35:30;1.40;;;0.37;;
72235;SDS011;60146;52.498;13.462;2023-01-13T08:37:55;0.40;;;0.30;;
72235;SDS011;60146;52.498;13.462;2023-01-13T08:40:24;0.80;;;0.50;;
72235;SDS011;60146;52.498;13.462;2023-01-13T08:42:49;1.13;;;0.37;;
72235;SDS011;60146;52.498;13.462;2023-01-13T08:45:16;0.30;;;0.20;;
72235;SDS011;60146;52.498;13.462;2023-01-13T08:47:42;0.90;;;0.50;;
72235;SDS011;60146;52.498;13.462;2023-01-13T08:50:07;1.50;;;0.50;;
72235;SDS011;60146;52.498;13.462;2023-01-13T08:52:33;0.60;;;0.30;;
72235;SDS011;60146;52.498;13.462;2023-01-13T08:54:58;0.83;;;0.40;;
72235;SDS011;60146;52.498;13.462;2023-01-13T08:57:23;1.00;;;0.40;;
72235;SDS011;60146;52.498;13.462;2023-01-13T08:59:48;0.60;;;0.50;;
72235;SDS011;60146;52.498;13.462;2023-01-13T09:02:18;1.20;;;0.50;;
72235;SDS011;60146;52.498;13.462;2023-01-13T09:04:43;0.93;;;0.40;;
72235;SDS011;60146;52.498;13.462;2023-01-13T09:07:09;2.60;;;0.60;;
72235;SDS011;60146;52.498;13.462;2023-01-13T09:09:34;1.67;;;0.60;;
72235;SDS011;60146;52.498;13.462;2023-01-13T09:11:59;0.60;;;0.30;;
72235;SDS011;60146;52.498;13.462;2023-01-13T09:14:43;2.80;;;0.33;;
72235;SDS011;60146;52.498;13.462;2023-01-13T09:17:09;3.60;;;0.60;;
72235;SDS011;60146;52.498;13.462;2023-01-13T09:19:34;1.23;;;0.40;;
72235;SDS011;60146;52.498;13.462;2023-01-13T09:22:00;2.27;;;0.67;;
72235;SDS011;60146;52.498;13.462;2023-01-13T09:24:25;1.97;;;0.60;;
72235;SDS011;60146;52.498;13.462;2023-01-13T09:26:50;0.80;;;0.30;;
72235;SDS011;60146;52.498;13.462;2023-01-13T09:29:16;1.80;;;0.60;;
72235;SDS011;60146;52.498;13.462;2023-01-13T09:31:42;1.67;;;0.40;;
72235;SDS011;60146;52.498;13.462;2023-01-13T09:34:09;2.83;;;0.50;;
72235;SDS011;60146;52.498;13.462;2023-01-13T09:36:55;3.50;;;0.33;;
72235;SDS011;60146;52.498;13.462;2023-01-13T09:39:21;0.77;;;0.60;;
72235;SDS011;60146;52.498;13.462;2023-01-13T09:41:47;3.90;;;0.50;;
72235;SDS011;60146;52.498;13.462;2023-01-13T09:44:40;1.87;;;0.40;;
72235;SDS011;60146;52.498;13.462;2023-01-13T09:47:09;0.97;;;0.40;;
72235;SDS011;60146;52.498;13.462;2023-01-13T09:49:38;2.00;;;0.57;;
72235;SDS011;60146;52.498;13.462;2023-01-13T09:55:03;0.83;;;0.50;;
72235;SDS011;60146;52.498;13.462;2023-01-13T09:57:30;1.03;;;0.63;;
72235;SDS011;60146;52.498;13.462;2023-01-13T09:59:56;0.87;;;0.50;;
72235;SDS011;60146;52.498;13.462;2023-01-13T10:07:28;1.30;;;0.40;;
72235;SDS011;60146;52.498;13.462;2023-01-13T10:09:55;1.70;;;0.40;;
72235;SDS011;60146;52.498;13.462;2023-01-13T10:12:22;2.37;;;0.60;;
72235;SDS011;60146;52.498;13.462;2023-01-13T10:15:41;4.23;;;0.60;;
72235;SDS011;60146;52.498;13.462;2023-01-13T10:20:54;2.30;;;0.43;;
72235;SDS011;60146;52.498;13.462;2023-01-13T10:26:17;1.75;;;0.60;;
72235;SDS011;60146;52.498;13.462;2023-01-13T10:28:53;3.80;;;0.50;;
72235;SDS011;60146;52.498;13.462;2023-01-13T10:31:19;0.97;;;0.50;;
72235;SDS011;60146;52.498;13.462;2023-01-13T10:33:46;3.40;;;0.73;;
72235;SDS011;60146;52.498;13.462;2023-01-13T10:36:12;1.50;;;0.40;;
72235;SDS011;60146;52.498;13.462;2023-01-13T10:38:39;0.60;;;0.30;;
72235;SDS011;60146;52.498;13.462;2023-01-13T10:43:29;3.03;;;0.30;;
72235;SDS011;60146;52.498;13.462;2023-01-13T10:48:30;2.50;;;0.60;;
72235;SDS011;60146;52.498;13.462;2023-01-13T10:50:56;1.70;;;0.40;;
72235;SDS011;60146;52.498;13.462;2023-01-13T10:53:22;2.03;;;0.60;;
72235;SDS011;60146;52.498;13.462;2023-01-13T10:55:59;0.50;;;0.30;;
72235;SDS011;60146;52.498;13.462;2023-01-13T10:58:24;1.87;;;0.40;;
72235;SDS011;60146;52.498;13.462;2023-01-13T11:00:56;2.07;;;0.40;;
72235;SDS011;60146;52.498;13.462;2023-01-13T11:03:23;1.60;;;0.50;;
72235;SDS011;60146;52.498;13.462;2023-01-13T11:08:17;1.43;;;0.27;;
72235;SDS011;60146;52.498;13.462;2023-01-13T11:10:44;2.00;;;0.40;;
72235;SDS011;60146;52.498;13.462;2023-01-13T11:15:43;2.07;;;0.30;;
72235;SDS011;60146;52.498;13.462;2023-01-13T11:18:16;2.67;;;0.40;;
72235;SDS011;60146;52.498;13.462;2023-01-13T11:20:42;0.80;;;0.30;;
72235;SDS011;60146;52.498;13.462;2023-01-13T11:23:44;0.60;;;0.50;;
72235;SDS011;60146;52.498;13.462;2023-01-13T11:26:05;2.10;;;0.50;;
72235;SDS011;60146;52.498;13.462;2023-01-13T11:28:35;0.93;;;0.30;;
72235;SDS011;60146;52.498;13.462;2023-01-13T11:33:43;3.97;;;0.50;;
72235;SDS011;60146;52.498;13.462;2023-01-13T11:36:17;0.57;;;0.40;;
72235;SDS011;60146;52.498;13.462;2023-01-13T11:38:54;1.73;;;0.67;;
72235;SDS011;60146;52.498;13.462;2023-01-13T11:46:13;1.90;;;0.30;;
72235;SDS011;60146;52.498;13.462;2023-01-13T11:48:39;3.03;;;0.50;;
72235;SDS011;60146;52.498;13.462;2023-01-13T11:53:49;1.60;;;0.73;;
72235;SDS011;60146;52.498;13.462;2023-01-13T12:04:08;1.97;;;0.50;;
72235;SDS011;60146;52.498;13.462;2023-01-13T12:06:39;1.90;;;0.40;;
72235;SDS011;60146;52.498;13.462;2023-01-13T12:09:10;2.00;;;0.50;;
72235;SDS011;60146;52.498;13.462;2023-01-13T12:11:52;1.63;;;0.40;;
72235;SDS011;60146;52.498;13.462;2023-01-13T12:19:55;2.67;;;0.40;;
72235;SDS011;60146;52.498;13.462;2023-01-13T12:22:28;3.27;;;0.70;;
72235;SDS011;60146;52.498;13.462;2023-01-13T12:30:10;3.57;;;0.50;;
72235;SDS011;60146;52.498;13.462;2023-01-13T12:32:37;3.17;;;0.60;;
72235;SDS011;60146;52.498;13.462;2023-01-13T12:35:18;1.90;;;0.70;;
72235;SDS011;60146;52.498;13.462;2023-01-13T12:37:51;2.37;;;0.50;;
72235;SDS011;60146;52.498;13.462;2023-01-13T12:46:13;5.47;;;0.80;;
72235;SDS011;60146;52.498;13.462;2023-01-13T12:57:13;4.60;;;0.90;;
72235;SDS011;60146;52.498;13.462;2023-01-13T12:59:43;3.73;;;0.40;;
72235;SDS011;60146;52.498;13.462;2023-01-13T13:05:02;3.80;;;0.70;;
72235;SDS011;60146;52.498;13.462;2023-01-13T13:07:30;3.50;;;0.70;;
72235;SDS011;60146;52.498;13.462;2023-01-13T13:15:25;3.88;;;0.93;;
72235;SDS011;60146;52.498;13.462;2023-01-13T13:23:28;2.90;;;0.90;;
72235;SDS011;60146;52.498;13.462;2023-01-13T13:41:52;5.00;;;1.00;;
72235;SDS011;60146;52.498;13.462;2023-01-13T13:44:41;3.80;;;0.50;;
72235;SDS011;60146;52.498;13.462;2023-01-13T13:47:37;5.07;;;0.80;;
72235;SDS011;60146;52.498;13.462;2023-01-13T13:50:36;3.17;;;0.70;;
72235;SDS011;60146;52.498;13.462;2023-01-13T13:53:02;2.00;;;0.53;;
72235;SDS011;60146;52.498;13.462;2023-01-13T13:55:29;3.70;;;0.70;;
72235;SDS011;60146;52.498;13.462;2023-01-13T13:57:55;4.47;;;0.73;;
72235;SDS011;60146;52.498;13.462;2023-01-13T14:03:00;8.13;;;0.80;;
72235;SDS011;60146;52.498;13.462;2023-01-13T14:07:58;3.33;;;0.60;;
72235;SDS011;60146;52.498;13.462;2023-01-13T14:10:28;5.30;;;1.07;;
72235;SDS011;60146;52.498;13.462;2023-01-13T14:12:53;5.20;;;0.93;;
72235;SDS011;60146;52.498;13.462;2023-01-13T14:15:23;6.03;;;1.00;;
72235;SDS011;60146;52.498;13.462;2023-01-13T14:17:48;2.13;;;0.83;;
72235;SDS011;60146;52.498;13.462;2023-01-13T14:20:15;2.73;;;0.70;;
72235;SDS011;60146;52.498;13.462;2023-01-13T14:22:45;2.37;;;0.70;;
72235;SDS011;60146;52.498;13.462;2023-01-13T14:30:16;3.00;;;1.10;;
72235;SDS011;60146;52.498;13.462;2023-01-13T14:32:42;4.03;;;0.97;;
72235;SDS011;60146;52.498;13.462;2023-01-13T14:35:08;3.90;;;0.90;;
72235;SDS011;60146;52.498;13.462;2023-01-13T14:39:59;2.07;;;0.70;;
72235;SDS011;60146;52.498;13.462;2023-01-13T14:42:24;4.87;;;0.80;;
72235;SDS011;60146;52.498;13.462;2023-01-13T14:44:51;1.47;;;0.70;;
72235;SDS011;60146;52.498;13.462;2023-01-13T14:47:21;3.97;;;0.80;;
72235;SDS011;60146;52.498;13.462;2023-01-13T14:52:19;3.43;;;0.90;;
72235;SDS011;60146;52.498;13.462;2023-01-13T15:02:33;5.43;;;0.90;;
72235;SDS011;60146;52.498;13.462;2023-01-13T15:10:28;2.90;;;0.93;;
72235;SDS011;60146;52.498;13.462;2023-01-13T15:12:54;2.80;;;1.20;;
72235;SDS011;60146;52.498;13.462;2023-01-13T15:15:27;1.70;;;0.70;;
72235;SDS011;60146;52.498;13.462;2023-01-13T15:17:53;7.80;;;1.67;;
72235;SDS011;60146;52.498;13.462;2023-01-13T15:20:19;2.30;;;0.70;;
72235;SDS011;60146;52.498;13.462;2023-01-13T15:22:45;2.07;;;0.60;;
72235;SDS011;60146;52.498;13.462;2023-01-13T15:25:10;5.10;;;0.97;;
72235;SDS011;60146;52.498;13.462;2023-01-13T15:27:36;1.33;;;0.50;;
72235;SDS011;60146;52.498;13.462;2023-01-13T15:30:23;2.27;;;0.50;;
72235;SDS011;60146;52.498;13.462;2023-01-13T15:32:49;2.83;;;0.70;;
72235;SDS011;60146;52.498;13.462;2023-01-13T15:35:15;7.63;;;1.40;;
72235;SDS011;60146;52.498;13.462;2023-01-13T15:37:44;2.67;;;0.70;;
72235;SDS011;60146;52.498;13.462;2023-01-13T15:40:17;3.90;;;0.87;;
72235;SDS011;60146;52.498;13.462;2023-01-13T15:42:43;2.33;;;0.80;;
72235;SDS011;60146;52.498;13.462;2023-01-13T15:45:26;5.60;;;1.10;;
72235;SDS011;60146;52.498;13.462;2023-01-13T15:48:10;4.30;;;0.97;;
72235;SDS011;60146;52.498;13.462;2023-01-13T15:50:36;3.10;;;1.00;;
72235;SDS011;60146;52.498;13.462;2023-01-13T15:53:01;4.30;;;0.80;;
72235;SDS011;60146;52.498;13.462;2023-01-13T15:55:27;6.80;;;0.97;;
72235;SDS011;60146;52.498;13.462;2023-01-13T15:57:52;3.33;;;1.00;;
72235;SDS011;60146;52.498;13.462;2023-01-13T16:00:18;4.43;;;1.07;;
72235;SDS011;60146;52.498;13.462;2023-01-13T16:02:44;7.53;;;1.10;;
72235;SDS011;60146;52.498;13.462;2023-01-13T16:05:09;4.70;;;1.10;;
72235;SDS011;60146;52.498;13.462;2023-01-13T16:07:35;4.27;;;0.97;;
72235;SDS011;60146;52.498;13.462;2023-01-13T16:10:00;4.10;;;0.90;;
72235;SDS011;60146;52.498;13.462;2023-01-13T16:12:27;4.60;;;1.00;;
72235;SDS011;60146;52.498;13.462;2023-01-13T16:14:52;4.50;;;1.13;;
72235;SDS011;60146;52.498;13.462;2023-01-13T16:17:19;3.30;;;0.90;;
72235;SDS011;60146;52.498;13.462;2023-01-13T16:19:44;3.17;;;0.80;;
72235;SDS011;60146;52.498;13.462;2023-01-13T16:22:19;4.47;;;0.83;;
72235;SDS011;60146;52.498;13.462;2023-01-13T16:24:45;3.73;;;1.00;;
72235;SDS011;60146;52.498;13.462;2023-01-13T16:27:13;2.80;;;0.83;;
72235;SDS011;60146;52.498;13.462;2023-01-13T16:29:38;1.63;;;0.80;;
72235;SDS011;60146;52.498;13.462;2023-01-13T16:32:04;5.67;;;0.80;;
72235;SDS011;60146;52.498;13.462;2023-01-13T16:34:29;3.43;;;1.00;;
72235;SDS011;60146;52.498;13.462;2023-01-13T16:36:57;2.20;;;0.73;;
72235;SDS011;60146;52.498;13.462;2023-01-13T16:39:23;6.77;;;0.80;;
72235;SDS011;60146;52.498;13.462;2023-01-13T16:41:48;5.27;;;0.90;;
72235;SDS011;60146;52.498;13.462;2023-01-13T16:44:13;4.17;;;0.80;;
72235;SDS011;60146;52.498;13.462;2023-01-13T16:46:39;2.47;;;0.80;;
72235;SDS011;60146;52.498;13.462;2023-01-13T16:49:05;4.80;;;1.10;;
72235;SDS011;60146;52.498;13.462;2023-01-13T16:51:30;7.10;;;1.10;;
72235;SDS011;60146;52.498;13.462;2023-01-13T16:53:56;3.40;;;0.90;;
72235;SDS011;60146;52.498;13.462;2023-01-13T16:56:22;3.93;;;0.90;;
72235;SDS011;60146;52.498;13.462;2023-01-13T16:58:48;4.90;;;0.90;;
72235;SDS011;60146;52.498;13.462;2023-01-13T17:01:17;2.07;;;0.63;;
72235;SDS011;60146;52.498;13.462;2023-01-13T17:03:43;3.28;;;1.10;;
72235;SDS011;60146;52.498;13.462;2023-01-13T17:06:08;4.67;;;0.67;;
72235;SDS011;60146;52.498;13.462;2023-01-13T17:08:35;4.37;;;0.93;;
72235;SDS011;60146;52.498;13.462;2023-01-13T17:11:00;2.73;;;0.70;;
72235;SDS011;60146;52.498;13.462;2023-01-13T17:13:25;6.70;;;0.80;;
72235;SDS011;60146;52.498;13.462;2023-01-13T17:15:53;4.33;;;0.90;;